Time,TemperatureF,DewpointF,PressureIn,WindDirection,WindDirectionDegrees,WindSpeedMPH,WindSpeedGustMPH,Humidity,HourlyPrecipIn,Conditions,Clouds,dailyrainin,SoftwareType,DateUTC
2013-04-25 00:03:00,33.1,24.0,29.91,West,281,5.0,5.0,69,0.00,CLR,CLR,0.00,WeatherDisplay:10.34,2013-04-25 06:03:00,
2013-04-25 00:08:00,33.0,23.9,29.91,West,281,1.0,0.0,69,0.00,CLR,CLR,0.00,WeatherDisplay:10.34,2013-04-25 06:08:00,
2013-04-25 00:13:00,33.0,23.9,29.91,West,281,2.0,2.0,69,0.00,CLR,CLR,0.00,WeatherDisplay:10.34,2013-04-25 06:13:00,
2013-04-25 00:18:00,32.8,23.7,29.91,West,281,0.0,0.0,69,0.00,CLR,CLR,0.00,WeatherDisplay:10.34,2013-04-25 06:18:00,
2013-04-25 00:23:00,32.8,23.7,29.91,West,281,2.0,2.0,69,0.00,CLR,CLR,0.00,WeatherDisplay:10.34,2013-04-25 06:23:00,
2013-04-25 00:28:00,32.7,24.0,29.91,West,281,3.0,3.0,70,0.00,CLR,CLR,0.00,WeatherDisplay:10.34,2013-04-25 06:28:00,
2013-04-25 00:33:00,32.5,23.8,29.91,NNW,331,6.0,6.0,70,0.00,CLR,CLR,0.00,WeatherDisplay:10.34,2013-04-25 06:33:00,
2013-04-25 00:38:00,32.4,23.7,29.90,WNW,302,2.0,3.0,70,0.00,CLR,CLR,0.00,WeatherDisplay:10.34,2013-04-25 06:38:00,
2013-04-25 00:43:00,32.3,23.6,29.90,WNW,302,2.0,2.0,70,0.00,CLR,CLR,0.00,WeatherDisplay:10.34,2013-04-25 06:43:00,
2013-04-25 00:48:00,32.2,23.5,29.90,WNW,302,3.0,3.0,70,0.00,CLR,CLR,0.00,WeatherDisplay:10.34,2013-04-25 06:48:00,
2013-04-25 00:53:00,32.2,23.5,29.90,WNW,302,0.0,0.0,70,0.00,CLR,CLR,0.00,WeatherDisplay:10.34,2013-04-25 06:53:00,
2013-04-25 00:58:00,32.2,23.5,29.90,WNW,302,0.0,1.0,70,0.00,CLR,CLR,0.00,WeatherDisplay:10.34,2013-04-25 06:58:00,
2013-04-25 01:03:00,32.2,23.8,29.90,WNW,302,1.0,2.0,71,0.00,CLR,CLR,0.00,WeatherDisplay:10.34,2013-04-25 07:03:00,
2013-04-25 01:08:00,32.1,23.8,29.90,WNW,302,2.0,2.0,71,0.00,CLR,CLR,0.00,WeatherDisplay:10.34,2013-04-25 07:08:00,
2013-04-25 01:13:00,32.1,23.8,29.90,WNW,302,1.0,2.0,71,0.00,CLR,CLR,0.00,WeatherDisplay:10.34,2013-04-25 07:13:00,
2013-04-25 01:18:00,32.1,24.1,29.90,WNW,302,0.0,0.0,72,0.00,CLR,CLR,0.00,WeatherDisplay:10.34,2013-04-25 07:18:00,
2013-04-25 01:23:00,32.1,24.1,29.90,WNW,302,1.0,1.0,72,0.00,CLR,CLR,0.00,WeatherDisplay:10.34,2013-04-25 07:23:00,
2013-04-25 01:28:00,32.0,24.0,29.90,WNW,302,1.0,2.0,72,0.00,CLR,CLR,0.00,WeatherDisplay:10.34,2013-04-25 07:28:00,
2013-04-25 01:33:00,32.0,24.0,29.89,WNW,302,4.0,4.0,72,0.00,CLR,CLR,0.00,WeatherDisplay:10.34,2013-04-25 07:33:00,
2013-04-25 01:38:00,32.0,24.0,29.90,WNW,302,1.0,1.0,72,0.00,CLR,CLR,0.00,WeatherDisplay:10.34,2013-04-25 07:38:00,
2013-04-25 01:43:00,31.9,23.9,29.90,WNW,302,0.0,0.0,72,0.00,CLR,CLR,0.00,WeatherDisplay:10.34,2013-04-25 07:43:00,
2013-04-25 01:48:00,31.8,23.8,29.89,WNW,302,2.0,3.0,72,0.00,CLR,CLR,0.00,WeatherDisplay:10.34,2013-04-25 07:48:00,
2013-04-25 01:53:00,31.7,23.7,29.90,WNW,302,2.0,3.0,72,0.00,CLR,CLR,0.00,WeatherDisplay:10.34,2013-04-25 07:53:00,
2013-04-25 01:58:00,31.6,23.9,29.90,WNW,302,2.0,2.0,73,0.00,CLR,CLR,0.00,WeatherDisplay:10.34,2013-04-25 07:58:00,
2013-04-25 02:03:00,31.6,23.9,29.90,WNW,302,0.0,1.0,73,0.00,CLR,CLR,0.00,WeatherDisplay:10.34,2013-04-25 08:03:00,
2013-04-25 02:08:00,31.5,23.8,29.90,WNW,288,2.0,2.0,73,0.00,CLR,CLR,0.00,WeatherDisplay:10.34,2013-04-25 08:08:00,
2013-04-25 02:13:00,31.5,23.8,29.90,West,265,1.0,1.0,73,0.00,CLR,CLR,0.00,WeatherDisplay:10.34,2013-04-25 08:13:00,
2013-04-25 02:18:00,31.6,23.9,29.90,West,262,4.0,4.0,73,0.00,CLR,CLR,0.00,WeatherDisplay:10.34,2013-04-25 08:18:00,
2013-04-25 02:23:00,31.7,24.0,29.90,West,262,2.0,2.0,73,0.00,CLR,CLR,0.00,WeatherDisplay:10.34,2013-04-25 08:23:00,
2013-04-25 02:28:00,31.7,24.4,29.90,NW,323,2.0,3.0,74,0.00,CLR,CLR,0.00,WeatherDisplay:10.34,2013-04-25 08:28:00,
2013-04-25 02:33:00,31.7,24.0,29.89,WNW,291,3.0,3.0,73,0.00,CLR,CLR,0.00,WeatherDisplay:10.34,2013-04-25 08:33:00,
2013-04-25 02:38:00,31.9,24.2,29.89,WNW,291,2.0,2.0,73,0.00,CLR,CLR,0.00,WeatherDisplay:10.34,2013-04-25 08:38:00,
2013-04-25 02:43:00,31.9,24.2,29.89,WNW,287,0.0,0.0,73,0.00,CLR,CLR,0.00,WeatherDisplay:10.34,2013-04-25 08:43:00,
2013-04-25 02:48:00,31.9,24.2,29.89,West,280,5.0,5.0,73,0.00,CLR,CLR,0.00,WeatherDisplay:10.34,2013-04-25 08:48:00,
2013-04-25 02:53:00,32.0,24.3,29.89,West,280,4.0,5.0,73,0.00,CLR,CLR,0.00,WeatherDisplay:10.34,2013-04-25 08:53:00,
2013-04-25 02:58:00,32.0,24.3,29.89,West,280,3.0,3.0,73,0.00,CLR,CLR,0.00,WeatherDisplay:10.34,2013-04-25 08:58:00,
2013-04-25 03:03:00,31.9,24.2,29.89,West,280,0.0,1.0,73,0.00,CLR,CLR,0.00,WeatherDisplay:10.34,2013-04-25 09:03:00,
2013-04-25 03:08:00,32.0,24.3,29.89,West,281,2.0,2.0,73,0.00,CLR,CLR,0.00,WeatherDisplay:10.34,2013-04-25 09:08:00,
2013-04-25 03:13:00,32.0,24.3,29.88,NW,315,2.0,3.0,73,0.00,CLR,CLR,0.00,WeatherDisplay:10.34,2013-04-25 09:13:00,
2013-04-25 03:18:00,32.0,24.3,29.88,NW,315,2.0,3.0,73,0.00,CLR,CLR,0.00,WeatherDisplay:10.34,2013-04-25 09:18:00,
2013-04-25 03:23:00,32.0,24.3,29.88,NW,308,3.0,3.0,73,0.00,CLR,CLR,0.00,WeatherDisplay:10.34,2013-04-25 09:23:00,
2013-04-25 03:28:00,32.0,24.3,29.88,NW,307,3.0,3.0,73,0.00,CLR,CLR,0.00,WeatherDisplay:10.34,2013-04-25 09:28:00,
2013-04-25 03:33:00,32.0,24.3,29.88,WNW,286,2.0,2.0,73,0.00,CLR,CLR,0.00,WeatherDisplay:10.34,2013-04-25 09:33:00,
2013-04-25 03:38:00,32.0,24.3,29.88,WNW,287,2.0,2.0,73,0.00,CLR,CLR,0.00,WeatherDisplay:10.34,2013-04-25 09:38:00,
2013-04-25 03:43:00,32.0,24.3,29.88,WNW,287,2.0,3.0,73,0.00,CLR,CLR,0.00,WeatherDisplay:10.34,2013-04-25 09:43:00,
2013-04-25 03:48:00,32.0,24.3,29.88,West,268,4.0,4.0,73,0.00,CLR,CLR,0.00,WeatherDisplay:10.34,2013-04-25 09:48:00,
2013-04-25 03:53:00,32.1,24.4,29.88,WNW,293,3.0,5.0,73,0.00,CLR,CLR,0.00,WeatherDisplay:10.34,2013-04-25 09:53:00,
2013-04-25 03:58:00,32.1,24.4,29.88,WNW,293,0.0,0.0,73,0.00,CLR,CLR,0.00,WeatherDisplay:10.34,2013-04-25 09:58:00,
2013-04-25 04:03:00,32.1,24.1,29.88,WNW,292,1.0,1.0,72,0.00,CLR,CLR,0.00,WeatherDisplay:10.34,2013-04-25 10:03:00,
2013-04-25 04:08:00,32.2,24.5,29.88,WNW,292,2.0,3.0,73,0.00,CLR,CLR,0.00,WeatherDisplay:10.34,2013-04-25 10:08:00,
2013-04-25 04:13:00,32.3,24.3,29.88,WNW,292,1.0,1.0,72,0.00,CLR,CLR,0.00,WeatherDisplay:10.34,2013-04-25 10:13:00,
2013-04-25 04:18:00,32.3,24.3,29.88,WNW,294,5.0,5.0,72,0.00,CLR,CLR,0.00,WeatherDisplay:10.34,2013-04-25 10:18:00,
2013-04-25 04:23:00,32.4,24.4,29.88,NW,304,5.0,7.0,72,0.00,CLR,CLR,0.00,WeatherDisplay:10.34,2013-04-25 10:23:00,
2013-04-25 04:28:00,32.4,24.4,29.88,NW,315,4.0,5.0,72,0.00,CLR,CLR,0.00,WeatherDisplay:10.34,2013-04-25 10:28:00,
2013-04-25 04:33:00,32.6,24.6,29.88,NNW,340,7.0,7.0,72,0.00,CLR,CLR,0.00,WeatherDisplay:10.34,2013-04-25 10:33:00,
2013-04-25 04:38:00,32.6,24.2,29.88,NNW,333,7.0,8.0,71,0.00,CLR,CLR,0.00,WeatherDisplay:10.34,2013-04-25 10:38:00,
2013-04-25 04:43:00,32.6,24.2,29.88,NW,326,1.0,2.0,71,0.00,CLR,CLR,0.00,WeatherDisplay:10.34,2013-04-25 10:43:00,
2013-04-25 04:48:00,32.6,24.2,29.88,NW,326,1.0,2.0,71,0.00,CLR,CLR,0.00,WeatherDisplay:10.34,2013-04-25 10:48:00,
2013-04-25 04:53:00,32.6,24.6,29.87,NW,326,2.0,3.0,72,0.00,CLR,CLR,0.00,WeatherDisplay:10.34,2013-04-25 10:53:00,
2013-04-25 04:58:00,32.6,24.6,29.87,NW,326,0.0,1.0,72,0.00,CLR,CLR,0.00,WeatherDisplay:10.34,2013-04-25 10:58:00,
2013-04-25 05:03:00,32.5,24.5,29.87,NNE,28,4.0,5.0,72,0.00,CLR,CLR,0.00,WeatherDisplay:10.34,2013-04-25 11:03:00,
2013-04-25 05:08:00,32.6,24.6,29.87,NNE,22,1.0,1.0,72,0.00,CLR,CLR,0.00,WeatherDisplay:10.34,2013-04-25 11:08:00,
2013-04-25 05:13:00,32.6,24.6,29.87,WSW,249,1.0,1.0,72,0.00,CLR,CLR,0.00,WeatherDisplay:10.34,2013-04-25 11:13:00,
2013-04-25 05:18:00,32.6,24.9,29.87,WSW,257,3.0,3.0,73,0.00,CLR,CLR,0.00,WeatherDisplay:10.34,2013-04-25 11:18:00,
2013-04-25 05:23:00,32.7,25.0,29.87,WSW,257,1.0,2.0,73,0.00,CLR,CLR,0.00,WeatherDisplay:10.34,2013-04-25 11:23:00,
2013-04-25 05:28:00,32.6,24.9,29.87,West,263,1.0,1.0,73,0.00,CLR,CLR,0.00,WeatherDisplay:10.34,2013-04-25 11:28:00,
2013-04-25 05:33:00,32.6,24.9,29.88,West,263,0.0,0.0,73,0.00,CLR,CLR,0.00,WeatherDisplay:10.34,2013-04-25 11:33:00,
2013-04-25 05:38:00,32.6,24.9,29.88,West,263,0.0,0.0,73,0.00,CLR,CLR,0.00,WeatherDisplay:10.34,2013-04-25 11:38:00,
2013-04-25 05:43:00,32.6,24.6,29.88,West,263,0.0,1.0,72,0.00,CLR,CLR,0.00,WeatherDisplay:10.34,2013-04-25 11:43:00,
2013-04-25 05:48:00,32.3,24.3,29.88,SW,218,6.0,6.0,72,0.00,CLR,CLR,0.00,WeatherDisplay:10.34,2013-04-25 11:48:00,
2013-04-25 05:53:00,32.1,24.4,29.87,SW,218,3.0,3.0,73,0.00,CLR,CLR,0.00,WeatherDisplay:10.34,2013-04-25 11:53:00,
2013-04-25 05:58:00,32.1,24.4,29.87,SW,218,5.0,5.0,73,0.00,CLR,CLR,0.00,WeatherDisplay:10.34,2013-04-25 11:58:00,
2013-04-25 06:03:00,32.1,24.7,29.87,SW,218,2.0,2.0,74,0.00,OVC,OVC,0.00,WeatherDisplay:10.34,2013-04-25 12:03:00,
2013-04-25 06:08:00,32.2,24.8,29.87,South,188,2.0,2.0,74,0.00,OVC,OVC,0.00,WeatherDisplay:10.34,2013-04-25 12:08:00,
2013-04-25 06:13:00,32.5,24.8,29.87,West,279,4.0,4.0,73,0.00,OVC,OVC,0.00,WeatherDisplay:10.34,2013-04-25 12:13:00,
2013-04-25 06:18:00,32.6,24.9,29.87,West,279,0.0,0.0,73,0.00,OVC,OVC,0.00,WeatherDisplay:10.34,2013-04-25 12:18:00,
2013-04-25 06:23:00,32.9,24.9,29.87,West,278,0.0,0.0,72,0.00,OVC,OVC,0.00,WeatherDisplay:10.34,2013-04-25 12:23:00,
2013-04-25 06:28:00,33.0,25.0,29.87,West,277,0.0,1.0,72,0.00,OVC,OVC,0.00,WeatherDisplay:10.34,2013-04-25 12:28:00,
2013-04-25 06:33:00,33.1,24.0,29.87,West,277,0.0,0.0,69,0.00,OVC,OVC,0.00,WeatherDisplay:10.34,2013-04-25 12:33:00,
2013-04-25 06:38:00,33.8,24.7,29.87,WNW,290,4.0,4.0,69,0.00,OVC,OVC,0.00,WeatherDisplay:10.34,2013-04-25 12:38:00,
2013-04-25 06:43:00,34.4,24.9,29.87,WNW,290,0.0,0.0,68,0.00,OVC,OVC,0.00,WeatherDisplay:10.34,2013-04-25 12:43:00,
2013-04-25 06:48:00,34.5,24.7,29.87,WNW,290,5.0,5.0,67,0.00,OVC,OVC,0.00,WeatherDisplay:10.34,2013-04-25 12:48:00,
2013-04-25 06:53:00,34.8,25.3,29.87,NNW,334,2.0,3.0,68,0.00,BKN,BKN,0.00,WeatherDisplay:10.34,2013-04-25 12:53:00,
2013-04-25 06:58:00,34.7,25.2,29.87,North,360,3.0,3.0,68,0.00,BKN,BKN,0.00,WeatherDisplay:10.34,2013-04-25 12:58:00,
2013-04-25 07:03:00,34.7,25.6,29.87,ENE,70,2.0,2.0,69,0.00,BKN,BKN,0.00,WeatherDisplay:10.34,2013-04-25 13:03:00,
2013-04-25 07:08:00,34.8,25.7,29.87,ENE,71,1.0,1.0,69,0.00,BKN,BKN,0.00,WeatherDisplay:10.34,2013-04-25 13:08:00,
2013-04-25 07:13:00,34.9,25.8,29.87,ENE,71,0.0,1.0,69,0.00,BKN,BKN,0.00,WeatherDisplay:10.34,2013-04-25 13:13:00,
2013-04-25 07:18:00,35.4,25.5,29.86,NNE,24,5.0,5.0,67,0.00,BKN,BKN,0.00,WeatherDisplay:10.34,2013-04-25 13:18:00,
2013-04-25 07:23:00,35.9,26.0,29.86,ENE,57,8.0,8.0,67,0.00,SCT,SCT,0.00,WeatherDisplay:10.34,2013-04-25 13:23:00,
2013-04-25 07:28:00,36.4,25.7,29.86,NW,323,2.0,3.0,65,0.00,SCT,SCT,0.00,WeatherDisplay:10.34,2013-04-25 13:28:00,
2013-04-25 07:33:00,36.7,26.0,29.86,ENE,61,6.0,7.0,65,0.00,BKN,BKN,0.00,WeatherDisplay:10.34,2013-04-25 13:33:00,
2013-04-25 07:38:00,36.8,25.8,29.86,ENE,74,3.0,3.0,64,0.00,BKN,BKN,0.00,WeatherDisplay:10.34,2013-04-25 13:38:00,
2013-04-25 07:43:00,37.1,25.7,29.86,ENE,74,5.0,7.0,63,0.00,BKN,BKN,0.00,WeatherDisplay:10.34,2013-04-25 13:43:00,
2013-04-25 07:48:00,37.8,24.7,29.86,NNE,32,0.0,1.0,59,0.00,BKN,BKN,0.00,WeatherDisplay:10.34,2013-04-25 13:48:00,
2013-04-25 07:53:00,38.9,23.7,29.86,West,276,2.0,2.0,54,0.00,BKN,BKN,0.00,WeatherDisplay:10.34,2013-04-25 13:53:00,
2013-04-25 07:58:00,40.4,24.1,29.86,West,263,3.0,3.0,52,0.00,BKN,BKN,0.00,WeatherDisplay:10.34,2013-04-25 13:58:00,
2013-04-25 08:03:00,41.1,24.3,29.87,SSW,210,0.0,1.0,51,0.00,BKN,BKN,0.00,WeatherDisplay:10.34,2013-04-25 14:03:00,
2013-04-25 08:08:00,41.4,24.1,29.87,SSW,211,6.0,8.0,50,0.00,BKN,BKN,0.00,WeatherDisplay:10.34,2013-04-25 14:08:00,
2013-04-25 08:13:00,42.3,25.0,29.87,South,189,3.0,3.0,50,0.00,OVC,OVC,0.00,WeatherDisplay:10.34,2013-04-25 14:13:00,
2013-04-25 08:18:00,42.9,24.5,29.87,SW,215,8.0,8.0,48,0.00,OVC,OVC,0.00,WeatherDisplay:10.34,2013-04-25 14:18:00,
2013-04-25 08:23:00,44.3,22.6,29.87,SSW,194,4.0,5.0,42,0.00,BKN,BKN,0.00,WeatherDisplay:10.34,2013-04-25 14:23:00,
2013-04-25 08:28:00,45.4,21.2,29.87,SW,226,10.0,13.0,38,0.00,BKN,BKN,0.00,WeatherDisplay:10.34,2013-04-25 14:28:00,
2013-04-25 08:33:00,46.1,20.6,29.87,WSW,248,9.0,9.0,36,0.00,SCT,SCT,0.00,WeatherDisplay:10.34,2013-04-25 14:33:00,
2013-04-25 08:38:00,46.8,21.9,29.87,NNW,327,7.0,7.0,37,0.00,FEW,FEW,0.00,WeatherDisplay:10.34,2013-04-25 14:38:00,
2013-04-25 08:43:00,45.4,27.3,29.87,NE,53,4.0,7.0,49,0.00,SCT,SCT,0.00,WeatherDisplay:10.34,2013-04-25 14:43:00,
2013-04-25 08:48:00,45.2,27.6,29.87,NNW,339,4.0,4.0,50,0.00,BKN,BKN,0.00,WeatherDisplay:10.34,2013-04-25 14:48:00,
2013-04-25 08:53:00,45.0,27.5,29.87,East,89,4.0,7.0,50,0.00,BKN,BKN,0.00,WeatherDisplay:10.34,2013-04-25 14:53:00,
2013-04-25 08:58:00,45.0,27.9,29.87,East,84,1.0,1.0,51,0.00,BKN,BKN,0.00,WeatherDisplay:10.34,2013-04-25 14:58:00,
2013-04-25 09:03:00,45.0,27.9,29.86,East,82,2.0,2.0,51,0.00,BKN,BKN,0.00,WeatherDisplay:10.34,2013-04-25 15:03:00,
2013-04-25 09:08:00,45.1,28.5,29.86,East,90,3.0,3.0,52,0.00,SCT,SCT,0.00,WeatherDisplay:10.34,2013-04-25 15:08:00,
2013-04-25 09:13:00,45.5,28.9,29.86,East,91,3.0,3.0,52,0.00,SCT,SCT,0.00,WeatherDisplay:10.34,2013-04-25 15:13:00,
2013-04-25 09:18:00,46.0,28.9,29.86,SSE,161,4.0,4.0,51,0.00,CLR,CLR,0.00,WeatherDisplay:10.34,2013-04-25 15:18:00,
2013-04-25 09:23:00,47.8,25.2,29.86,East,82,7.0,9.0,41,0.00,SCT,SCT,0.00,WeatherDisplay:10.34,2013-04-25 15:23:00,
2013-04-25 09:28:00,48.7,29.9,29.86,East,96,8.0,9.0,48,0.00,CLR,CLR,0.00,WeatherDisplay:10.34,2013-04-25 15:28:00,
2013-04-25 09:33:00,48.7,28.8,29.86,ENE,73,3.0,10.0,46,0.00,BKN,BKN,0.00,WeatherDisplay:10.34,2013-04-25 15:33:00,
2013-04-25 09:38:00,49.0,29.1,29.86,East,86,4.0,9.0,46,0.00,CLR,CLR,0.00,WeatherDisplay:10.34,2013-04-25 15:38:00,
2013-04-25 09:43:00,49.5,28.5,29.86,East,84,9.0,10.0,44,0.00,CLR,CLR,0.00,WeatherDisplay:10.34,2013-04-25 15:43:00,
2013-04-25 09:48:00,50.1,28.4,29.86,East,82,12.0,12.0,43,0.00,CLR,CLR,0.00,WeatherDisplay:10.34,2013-04-25 15:48:00,
2013-04-25 09:53:00,50.8,27.3,29.86,SW,233,4.0,4.0,40,0.00,CLR,CLR,0.00,WeatherDisplay:10.34,2013-04-25 15:53:00,
2013-04-25 09:58:00,51.9,28.3,29.86,SE,129,7.0,8.0,40,0.00,CLR,CLR,0.00,WeatherDisplay:10.34,2013-04-25 15:58:00,
2013-04-25 10:03:00,51.7,26.9,29.86,SSE,167,1.0,3.0,38,0.00,CLR,CLR,0.00,WeatherDisplay:10.34,2013-04-25 16:03:00,
2013-04-25 10:08:00,52.3,27.4,29.85,East,98,3.0,7.0,38,0.00,CLR,CLR,0.00,WeatherDisplay:10.34,2013-04-25 16:08:00,
2013-04-25 10:13:00,53.2,26.2,29.84,ESE,113,6.0,10.0,35,0.00,CLR,CLR,0.00,WeatherDisplay:10.34,2013-04-25 16:13:00,
2013-04-25 10:18:00,53.8,27.4,29.84,ESE,111,8.0,9.0,36,0.00,CLR,CLR,0.00,WeatherDisplay:10.34,2013-04-25 16:18:00,
2013-04-25 10:23:00,54.8,20.5,29.84,SSW,203,8.0,12.0,26,0.00,CLR,CLR,0.00,WeatherDisplay:10.34,2013-04-25 16:23:00,
2013-04-25 10:28:00,56.4,21.0,29.84,SSW,210,12.0,14.0,25,0.00,CLR,CLR,0.00,WeatherDisplay:10.34,2013-04-25 16:28:00,
2013-04-25 10:33:00,57.1,21.6,29.84,SSW,194,13.0,13.0,25,0.00,CLR,CLR,0.00,WeatherDisplay:10.34,2013-04-25 16:33:00,
2013-04-25 10:38:00,57.3,21.7,29.84,South,186,14.0,15.0,25,0.00,FEW,FEW,0.00,WeatherDisplay:10.34,2013-04-25 16:38:00,
2013-04-25 10:43:00,57.6,22.9,29.83,SSW,194,14.0,15.0,26,0.00,CLR,CLR,0.00,WeatherDisplay:10.34,2013-04-25 16:43:00,
2013-04-25 10:48:00,57.8,21.2,29.83,South,187,11.0,14.0,24,0.00,CLR,CLR,0.00,WeatherDisplay:10.34,2013-04-25 16:48:00,
2013-04-25 10:53:00,58.3,20.6,29.83,SSW,196,6.0,9.0,23,0.00,FEW,FEW,0.00,WeatherDisplay:10.34,2013-04-25 16:53:00,
2013-04-25 10:58:00,58.4,19.7,29.83,SSW,202,16.0,16.0,22,0.00,CLR,CLR,0.00,WeatherDisplay:10.34,2013-04-25 16:58:00,
2013-04-25 11:03:00,58.2,19.5,29.83,SW,215,17.0,20.0,22,0.00,OVC,OVC,0.00,WeatherDisplay:10.34,2013-04-25 17:03:00,
2013-04-25 11:08:00,57.9,19.2,29.83,SSW,212,15.0,15.0,22,0.00,CLR,CLR,0.00,WeatherDisplay:10.34,2013-04-25 17:08:00,
2013-04-25 11:13:00,58.4,17.4,29.83,SW,232,12.0,21.0,20,0.00,CLR,CLR,0.00,WeatherDisplay:10.34,2013-04-25 17:13:00,
2013-04-25 11:18:00,59.5,19.5,29.83,SW,217,22.0,26.0,21,0.00,CLR,CLR,0.00,WeatherDisplay:10.34,2013-04-25 17:18:00,
2013-04-25 11:23:00,60.1,18.8,29.83,SSW,208,20.0,21.0,20,0.00,CLR,CLR,0.00,WeatherDisplay:10.34,2013-04-25 17:23:00,
2013-04-25 11:28:00,61.1,18.5,29.83,WSW,239,25.0,26.0,19,0.00,CLR,CLR,0.00,WeatherDisplay:10.34,2013-04-25 17:28:00,
2013-04-25 11:33:00,60.9,17.0,29.83,SW,229,20.0,21.0,18,0.00,OVC,OVC,0.00,WeatherDisplay:10.34,2013-04-25 17:33:00,
2013-04-25 11:38:00,60.2,17.7,29.83,West,259,24.0,29.0,19,0.00,OVC,OVC,0.00,WeatherDisplay:10.34,2013-04-25 17:38:00,
2013-04-25 11:43:00,59.8,16.1,29.83,SW,231,17.0,23.0,18,0.00,OVC,OVC,0.00,WeatherDisplay:10.34,2013-04-25 17:43:00,
2013-04-25 11:48:00,59.0,15.5,29.83,SW,236,12.0,14.0,18,0.00,OVC,OVC,0.00,WeatherDisplay:10.34,2013-04-25 17:48:00,
2013-04-25 11:53:00,59.0,16.7,29.82,WSW,250,18.0,26.0,19,0.00,SCT,SCT,0.00,WeatherDisplay:10.34,2013-04-25 17:53:00,
2013-04-25 11:58:00,59.0,16.7,29.82,SW,227,21.0,23.0,19,0.00,OVC,OVC,0.00,WeatherDisplay:10.34,2013-04-25 17:58:00,
2013-04-25 12:03:00,59.0,17.9,29.82,SSW,192,20.0,20.0,20,0.00,CLR,CLR,0.00,WeatherDisplay:10.34,2013-04-25 18:03:00,
2013-04-25 12:08:00,60.2,18.9,29.82,WSW,239,26.0,28.0,20,0.00,CLR,CLR,0.00,WeatherDisplay:10.34,2013-04-25 18:08:00,
2013-04-25 12:13:00,61.0,17.1,29.82,West,265,21.0,24.0,18,0.00,SCT,SCT,0.00,WeatherDisplay:10.34,2013-04-25 18:13:00,
2013-04-25 12:18:00,60.7,16.9,29.82,WSW,248,16.0,22.0,18,0.00,SCT,SCT,0.00,WeatherDisplay:10.34,2013-04-25 18:18:00,
2013-04-25 12:23:00,61.0,18.4,29.82,WSW,245,23.0,25.0,19,0.00,CLR,CLR,0.00,WeatherDisplay:10.34,2013-04-25 18:23:00,
2013-04-25 12:28:00,61.6,18.9,29.82,WSW,250,20.0,22.0,19,0.00,CLR,CLR,0.00,WeatherDisplay:10.34,2013-04-25 18:28:00,
2013-04-25 12:33:00,62.0,19.2,29.81,West,262,20.0,26.0,19,0.00,CLR,CLR,0.00,WeatherDisplay:10.34,2013-04-25 18:33:00,
2013-04-25 12:38:00,62.3,19.5,29.81,SW,222,30.0,33.0,19,0.00,CLR,CLR,0.00,WeatherDisplay:10.34,2013-04-25 18:38:00,
2013-04-25 12:43:00,62.9,20.0,29.81,West,260,17.0,20.0,19,0.00,CLR,CLR,0.00,WeatherDisplay:10.34,2013-04-25 18:43:00,
2013-04-25 12:48:00,63.2,20.2,29.81,WSW,239,20.0,21.0,19,0.00,CLR,CLR,0.00,WeatherDisplay:10.34,2013-04-25 18:48:00,
2013-04-25 12:53:00,63.5,19.2,29.81,SW,219,25.0,25.0,18,0.00,CLR,CLR,0.00,WeatherDisplay:10.34,2013-04-25 18:53:00,
2013-04-25 12:59:00,63.6,20.5,29.81,WSW,248,21.0,22.0,19,0.00,CLR,CLR,0.00,WeatherDisplay:10.34,2013-04-25 18:59:00,
2013-04-25 13:04:00,63.2,18.9,29.81,WSW,238,16.0,16.0,18,0.00,CLR,CLR,0.00,WeatherDisplay:10.34,2013-04-25 19:04:00,
2013-04-25 13:09:00,63.1,21.3,29.81,WSW,247,10.0,12.0,20,0.00,CLR,CLR,0.00,WeatherDisplay:10.34,2013-04-25 19:09:00,
2013-04-25 13:14:00,63.7,20.6,29.80,SW,226,21.0,29.0,19,0.00,CLR,CLR,0.00,WeatherDisplay:10.34,2013-04-25 19:14:00,
2013-04-25 13:19:00,64.4,21.2,29.80,SSW,209,20.0,24.0,19,0.00,CLR,CLR,0.00,WeatherDisplay:10.34,2013-04-25 19:19:00,
2013-04-25 13:24:00,64.7,21.4,29.79,SW,229,10.0,16.0,19,0.00,CLR,CLR,0.00,WeatherDisplay:10.34,2013-04-25 19:24:00,
2013-04-25 13:29:00,65.0,21.7,29.79,SSW,195,25.0,25.0,19,0.00,CLR,CLR,0.00,WeatherDisplay:10.34,2013-04-25 19:29:00,
2013-04-25 13:34:00,65.6,22.2,29.79,SW,230,9.0,9.0,19,0.00,CLR,CLR,0.00,WeatherDisplay:10.34,2013-04-25 19:34:00,
2013-04-25 13:39:00,65.5,19.5,29.79,West,263,16.0,21.0,17,0.00,CLR,CLR,0.00,WeatherDisplay:10.34,2013-04-25 19:39:00,
2013-04-25 13:44:00,65.0,20.4,29.78,WSW,248,18.0,20.0,18,0.00,CLR,CLR,0.00,WeatherDisplay:10.34,2013-04-25 19:44:00,
2013-04-25 13:49:00,65.2,21.9,29.78,South,188,7.0,7.0,19,0.00,CLR,CLR,0.00,WeatherDisplay:10.34,2013-04-25 19:49:00,
2013-04-25 13:54:00,65.7,22.3,29.79,SW,221,17.0,17.0,19,0.00,CLR,CLR,0.00,WeatherDisplay:10.34,2013-04-25 19:54:00,
2013-04-25 13:59:00,66.4,21.6,29.79,SW,223,19.0,20.0,18,0.00,CLR,CLR,0.00,WeatherDisplay:10.34,2013-04-25 19:59:00,
2013-04-25 14:04:00,66.1,21.3,29.79,WSW,253,14.0,14.0,18,0.00,CLR,CLR,0.00,WeatherDisplay:10.34,2013-04-25 20:04:00,
2013-04-25 14:09:00,65.8,21.1,29.79,SSW,205,12.0,12.0,18,0.00,CLR,CLR,0.00,WeatherDisplay:10.34,2013-04-25 20:09:00,
2013-04-25 14:14:00,66.1,21.3,29.78,WSW,253,20.0,21.0,18,0.00,CLR,CLR,0.00,WeatherDisplay:10.34,2013-04-25 20:14:00,
2013-04-25 14:19:00,66.0,22.5,29.78,WSW,250,16.0,17.0,19,0.00,CLR,CLR,0.00,WeatherDisplay:10.34,2013-04-25 20:19:00,
2013-04-25 14:24:00,65.9,19.8,29.78,West,270,14.0,14.0,17,0.00,CLR,CLR,0.00,WeatherDisplay:10.34,2013-04-25 20:24:00,
2013-04-25 14:29:00,65.7,21.0,29.78,West,265,13.0,16.0,18,0.00,CLR,CLR,0.00,WeatherDisplay:10.34,2013-04-25 20:29:00,
2013-04-25 14:34:00,65.8,21.1,29.78,SW,229,20.0,21.0,18,0.00,CLR,CLR,0.00,WeatherDisplay:10.34,2013-04-25 20:34:00,
2013-04-25 14:39:00,66.4,21.6,29.78,WSW,244,13.0,13.0,18,0.00,CLR,CLR,0.00,WeatherDisplay:10.34,2013-04-25 20:39:00,
2013-04-25 14:44:00,67.1,22.1,29.77,WSW,254,9.0,12.0,18,0.00,CLR,CLR,0.00,WeatherDisplay:10.34,2013-04-25 20:44:00,
2013-04-25 14:49:00,67.2,20.9,29.77,WSW,257,12.0,13.0,17,0.00,CLR,CLR,0.00,WeatherDisplay:10.34,2013-04-25 20:49:00,
2013-04-25 14:54:00,67.2,20.9,29.77,WSW,247,8.0,9.0,17,0.00,CLR,CLR,0.00,WeatherDisplay:10.34,2013-04-25 20:54:00,
2013-04-25 14:59:00,67.1,20.8,29.77,WSW,248,18.0,20.0,17,0.00,CLR,CLR,0.00,WeatherDisplay:10.34,2013-04-25 20:59:00,
2013-04-25 15:04:00,66.7,23.1,29.78,WSW,252,18.0,18.0,19,0.00,CLR,CLR,0.00,WeatherDisplay:10.34,2013-04-25 21:04:00,
2013-04-25 15:09:00,67.0,22.1,29.78,SW,230,16.0,16.0,18,0.00,CLR,CLR,0.00,WeatherDisplay:10.34,2013-04-25 21:09:00,
2013-04-25 15:14:00,67.0,22.1,29.77,SW,234,10.0,12.0,18,0.00,CLR,CLR,0.00,WeatherDisplay:10.34,2013-04-25 21:14:00,
2013-04-25 15:19:00,67.2,20.9,29.77,WSW,244,8.0,8.0,17,0.00,CLR,CLR,0.00,WeatherDisplay:10.34,2013-04-25 21:19:00,
2013-04-25 15:24:00,66.8,21.9,29.77,West,281,4.0,4.0,18,0.00,CLR,CLR,0.00,WeatherDisplay:10.34,2013-04-25 21:24:00,
2013-04-25 15:29:00,67.2,22.2,29.77,WNW,291,8.0,9.0,18,0.00,CLR,CLR,0.00,WeatherDisplay:10.34,2013-04-25 21:29:00,
2013-04-25 15:34:00,67.5,22.5,29.77,SW,214,12.0,12.0,18,0.00,CLR,CLR,0.00,WeatherDisplay:10.34,2013-04-25 21:34:00,
2013-04-25 15:39:00,67.9,22.8,29.77,NNW,341,9.0,12.0,18,0.00,CLR,CLR,0.00,WeatherDisplay:10.34,2013-04-25 21:39:00,
2013-04-25 15:44:00,67.9,21.4,29.77,WNW,295,13.0,14.0,17,0.00,CLR,CLR,0.00,WeatherDisplay:10.34,2013-04-25 21:44:00,
2013-04-25 15:49:00,67.9,21.4,29.77,WSW,250,16.0,16.0,17,0.00,CLR,CLR,0.00,WeatherDisplay:10.34,2013-04-25 21:49:00,
2013-04-25 15:54:00,67.9,21.4,29.76,West,267,7.0,8.0,17,0.00,CLR,CLR,0.00,WeatherDisplay:10.34,2013-04-25 21:54:00,
2013-04-25 15:59:00,67.8,22.7,29.76,SW,235,13.0,20.0,18,0.00,CLR,CLR,0.00,WeatherDisplay:10.34,2013-04-25 21:59:00,
2013-04-25 16:04:00,67.4,21.0,29.76,WSW,244,8.0,9.0,17,0.00,BKN,BKN,0.00,WeatherDisplay:10.34,2013-04-25 22:04:00,
2013-04-25 16:09:00,66.6,20.4,29.76,SW,215,9.0,9.0,17,0.00,BKN,BKN,0.00,WeatherDisplay:10.34,2013-04-25 22:09:00,
2013-04-25 16:14:00,66.2,21.4,29.77,WSW,239,2.0,5.0,18,0.00,CLR,CLR,0.00,WeatherDisplay:10.34,2013-04-25 22:14:00,
2013-04-25 16:19:00,66.3,21.5,29.77,West,268,14.0,14.0,18,0.00,CLR,CLR,0.00,WeatherDisplay:10.34,2013-04-25 22:19:00,
2013-04-25 16:24:00,66.7,21.8,29.77,SSW,213,8.0,10.0,18,0.00,CLR,CLR,0.00,WeatherDisplay:10.34,2013-04-25 22:24:00,
2013-04-25 16:29:00,67.0,22.1,29.77,SW,227,15.0,15.0,18,0.00,CLR,CLR,0.00,WeatherDisplay:10.34,2013-04-25 22:29:00,
2013-04-25 16:34:00,67.2,22.2,29.77,SSW,213,14.0,17.0,18,0.00,CLR,CLR,0.00,WeatherDisplay:10.34,2013-04-25 22:34:00,
2013-04-25 16:39:00,67.1,20.8,29.77,SW,234,11.0,12.0,17,0.00,BKN,BKN,0.00,WeatherDisplay:10.34,2013-04-25 22:39:00,
2013-04-25 16:44:00,66.4,20.2,29.76,SW,223,15.0,15.0,17,0.00,SCT,SCT,0.00,WeatherDisplay:10.34,2013-04-25 22:44:00,
2013-04-25 16:49:00,65.9,19.8,29.76,SW,221,9.0,9.0,17,0.00,FEW,FEW,0.00,WeatherDisplay:10.34,2013-04-25 22:49:00,
2013-04-25 16:54:00,65.7,19.6,29.76,West,269,26.0,26.0,17,0.00,BKN,BKN,0.00,WeatherDisplay:10.34,2013-04-25 22:54:00,
2013-04-25 16:59:00,65.2,20.6,29.76,West,267,14.0,14.0,18,0.00,BKN,BKN,0.00,WeatherDisplay:10.34,2013-04-25 22:59:00,
2013-04-25 17:04:00,64.7,20.2,29.76,SW,226,16.0,17.0,18,0.00,BKN,BKN,0.00,WeatherDisplay:10.34,2013-04-25 23:04:00,
2013-04-25 17:09:00,64.5,20.0,29.76,West,261,12.0,24.0,18,0.00,BKN,BKN,0.00,WeatherDisplay:10.34,2013-04-25 23:09:00,
2013-04-25 17:14:00,64.3,19.8,29.77,SSW,213,25.0,25.0,18,0.00,BKN,BKN,0.00,WeatherDisplay:10.34,2013-04-25 23:14:00,
2013-04-25 17:19:00,64.1,19.7,29.77,West,280,10.0,10.0,18,0.00,CLR,CLR,0.00,WeatherDisplay:10.34,2013-04-25 23:19:00,
2013-04-25 17:24:00,64.5,20.0,29.77,West,261,8.0,8.0,18,0.00,CLR,CLR,0.00,WeatherDisplay:10.34,2013-04-25 23:24:00,
2013-04-25 17:29:00,64.9,20.3,29.77,WSW,238,6.0,9.0,18,0.00,CLR,CLR,0.00,WeatherDisplay:10.34,2013-04-25 23:29:00,
2013-04-25 17:34:00,65.5,20.8,29.77,WSW,237,11.0,12.0,18,0.00,CLR,CLR,0.00,WeatherDisplay:10.34,2013-04-25 23:34:00,
2013-04-25 17:39:00,66.0,21.2,29.77,SW,223,15.0,16.0,18,0.00,CLR,CLR,0.00,WeatherDisplay:10.34,2013-04-25 23:39:00,
2013-04-25 17:44:00,66.0,21.2,29.77,SSW,200,18.0,18.0,18,0.00,CLR,CLR,0.00,WeatherDisplay:10.34,2013-04-25 23:44:00,
2013-04-25 17:49:00,65.9,21.2,29.77,SW,236,11.0,12.0,18,0.00,CLR,CLR,0.00,WeatherDisplay:10.34,2013-04-25 23:49:00,
2013-04-25 17:54:00,65.4,19.4,29.77,WSW,256,17.0,17.0,17,0.00,SCT,SCT,0.00,WeatherDisplay:10.34,2013-04-25 23:54:00,
2013-04-25 17:59:00,65.0,20.4,29.77,West,261,9.0,9.0,18,0.00,BKN,BKN,0.00,WeatherDisplay:10.34,2013-04-25 23:59:00,
2013-04-25 18:04:00,64.1,19.7,29.77,West,277,10.0,12.0,18,0.00,OVC,OVC,0.00,WeatherDisplay:10.34,2013-04-26 00:04:00,
2013-04-25 18:09:00,63.6,19.3,29.77,NW,312,6.0,7.0,18,0.00,BKN,BKN,0.00,WeatherDisplay:10.34,2013-04-26 00:09:00,
2013-04-25 18:14:00,63.3,19.0,29.79,NW,311,9.0,12.0,18,0.00,SCT,SCT,0.00,WeatherDisplay:10.34,2013-04-26 00:14:00,
2013-04-25 18:19:00,63.3,20.3,29.79,West,268,6.0,6.0,19,0.00,SCT,SCT,0.00,WeatherDisplay:10.34,2013-04-26 00:19:00,
2013-04-25 18:24:00,63.5,21.7,29.79,West,277,10.0,12.0,20,0.00,CLR,CLR,0.00,WeatherDisplay:10.34,2013-04-26 00:24:00,
2013-04-25 18:29:00,63.9,20.8,29.79,SW,232,13.0,16.0,19,0.00,CLR,CLR,0.00,WeatherDisplay:10.34,2013-04-26 00:29:00,
2013-04-25 18:34:00,64.1,20.9,29.79,WSW,254,6.0,8.0,19,0.00,BKN,BKN,0.00,WeatherDisplay:10.34,2013-04-26 00:34:00,
2013-04-25 18:39:00,64.0,20.9,29.79,WNW,298,3.0,5.0,19,0.00,SCT,SCT,0.00,WeatherDisplay:10.34,2013-04-26 00:39:00,
2013-04-25 18:44:00,63.6,20.5,29.79,WSW,238,14.0,16.0,19,0.00,CLR,CLR,0.00,WeatherDisplay:10.34,2013-04-26 00:44:00,
2013-04-25 18:49:00,63.4,21.6,29.79,WSW,250,7.0,14.0,20,0.00,CLR,CLR,0.00,WeatherDisplay:10.34,2013-04-26 00:49:00,
2013-04-25 18:54:00,63.5,20.5,29.80,West,259,9.0,10.0,19,0.00,FEW,FEW,0.00,WeatherDisplay:10.34,2013-04-26 00:54:00,
2013-04-25 18:59:00,63.2,20.2,29.80,WNW,282,9.0,9.0,19,0.00,CLR,CLR,0.00,WeatherDisplay:10.34,2013-04-26 00:59:00,
2013-04-25 19:04:00,63.1,20.1,29.80,West,265,8.0,8.0,19,0.00,FEW,FEW,0.00,WeatherDisplay:10.34,2013-04-26 01:04:00,
2013-04-25 19:09:00,62.9,20.0,29.80,West,279,14.0,17.0,19,0.00,FEW,FEW,0.00,WeatherDisplay:10.34,2013-04-26 01:09:00,
2013-04-25 19:14:00,62.4,20.8,29.80,WNW,292,7.0,10.0,20,0.00,FEW,FEW,0.00,WeatherDisplay:10.34,2013-04-26 01:14:00,
2013-04-25 19:19:00,62.0,20.4,29.80,West,278,3.0,3.0,20,0.00,FEW,FEW,0.00,WeatherDisplay:10.34,2013-04-26 01:19:00,
2013-04-25 19:24:00,61.7,21.3,29.81,NW,310,7.0,10.0,21,0.00,CLR,CLR,0.00,WeatherDisplay:10.34,2013-04-26 01:24:00,
2013-04-25 19:29:00,61.5,20.0,29.81,West,273,15.0,17.0,20,0.00,CLR,CLR,0.00,WeatherDisplay:10.34,2013-04-26 01:29:00,
2013-04-25 19:34:00,61.6,20.1,29.81,WNW,299,8.0,8.0,20,0.00,CLR,CLR,0.00,WeatherDisplay:10.34,2013-04-26 01:34:00,
2013-04-25 19:39:00,61.4,19.9,29.81,NNW,338,10.0,12.0,20,0.00,CLR,CLR,0.00,WeatherDisplay:10.34,2013-04-26 01:39:00,
2013-04-25 19:44:00,61.3,21.0,29.81,WNW,289,1.0,2.0,21,0.00,CLR,CLR,0.00,WeatherDisplay:10.34,2013-04-26 01:44:00,
2013-04-25 19:49:00,61.2,20.9,29.81,NW,324,3.0,3.0,21,0.00,CLR,CLR,0.00,WeatherDisplay:10.34,2013-04-26 01:49:00,
2013-04-25 19:54:00,61.0,21.8,29.81,NNW,342,3.0,5.0,22,0.00,CLR,CLR,0.00,WeatherDisplay:10.34,2013-04-26 01:54:00,
2013-04-25 19:59:00,60.7,21.6,29.81,NNW,342,6.0,6.0,22,0.00,CLR,CLR,0.00,WeatherDisplay:10.34,2013-04-26 01:59:00,
2013-04-25 20:04:00,60.5,22.5,29.81,NNW,341,1.0,1.0,23,0.00,CLR,CLR,0.00,WeatherDisplay:10.34,2013-04-26 02:04:00,
2013-04-25 20:09:00,60.2,21.2,29.81,NW,309,3.0,3.0,22,0.00,OVC,OVC,0.00,WeatherDisplay:10.34,2013-04-26 02:09:00,
2013-04-25 20:14:00,59.9,20.9,29.83,NNW,336,4.0,4.0,22,0.00,OVC,OVC,0.00,WeatherDisplay:10.34,2013-04-26 02:14:00,
2013-04-25 20:19:00,59.6,20.7,29.83,NW,323,0.0,0.0,22,0.00,OVC,OVC,0.00,WeatherDisplay:10.34,2013-04-26 02:19:00,
2013-04-25 20:24:00,59.5,20.6,29.83,NW,311,2.0,2.0,22,0.00,OVC,OVC,0.00,WeatherDisplay:10.34,2013-04-26 02:24:00,
2013-04-25 20:29:00,59.3,21.5,29.83,NW,311,0.0,0.0,23,0.00,OVC,OVC,0.00,WeatherDisplay:10.34,2013-04-26 02:29:00,
2013-04-25 20:34:00,59.1,21.3,29.83,NW,312,0.0,0.0,23,0.00,OVC,OVC,0.00,WeatherDisplay:10.34,2013-04-26 02:34:00,
2013-04-25 20:39:00,59.0,22.2,29.83,NW,312,1.0,1.0,24,0.00,OVC,OVC,0.00,WeatherDisplay:10.34,2013-04-26 02:39:00,
2013-04-25 20:44:00,58.8,22.0,29.84,West,279,4.0,4.0,24,0.00,OVC,OVC,0.00,WeatherDisplay:10.34,2013-04-26 02:44:00,
2013-04-25 20:49:00,58.2,21.5,29.84,West,279,2.0,2.0,24,0.00,OVC,OVC,0.00,WeatherDisplay:10.34,2013-04-26 02:49:00,
2013-04-25 20:54:00,57.8,21.2,29.85,West,272,3.0,3.0,24,0.00,OVC,OVC,0.00,WeatherDisplay:10.34,2013-04-26 02:54:00,
2013-04-25 20:59:00,57.4,20.9,29.85,West,272,4.0,4.0,24,0.00,OVC,OVC,0.00,WeatherDisplay:10.34,2013-04-26 02:59:00,
2013-04-25 21:04:00,57.2,20.7,29.85,West,272,1.0,2.0,24,0.00,CLR,CLR,0.00,WeatherDisplay:10.34,2013-04-26 03:04:00,
2013-04-25 21:09:00,57.1,21.6,29.85,West,272,0.0,0.0,25,0.00,CLR,CLR,0.00,WeatherDisplay:10.34,2013-04-26 03:09:00,
2013-04-25 21:14:00,56.9,21.4,29.86,West,272,2.0,2.0,25,0.00,CLR,CLR,0.00,WeatherDisplay:10.34,2013-04-26 03:14:00,
2013-04-25 21:19:00,56.7,22.2,29.86,West,272,0.0,0.0,26,0.00,CLR,CLR,0.00,WeatherDisplay:10.34,2013-04-26 03:19:00,
2013-04-25 21:24:00,56.3,22.7,29.86,West,272,0.0,0.0,27,0.00,CLR,CLR,0.00,WeatherDisplay:10.34,2013-04-26 03:24:00,
2013-04-25 21:29:00,55.9,21.5,29.86,West,272,0.0,0.0,26,0.00,CLR,CLR,0.00,WeatherDisplay:10.34,2013-04-26 03:29:00,
2013-04-25 21:34:00,55.3,21.0,29.87,SW,225,5.0,5.0,26,0.00,CLR,CLR,0.00,WeatherDisplay:10.34,2013-04-26 03:34:00,
2013-04-25 21:39:00,54.6,21.2,29.87,SW,234,6.0,7.0,27,0.00,CLR,CLR,0.00,WeatherDisplay:10.34,2013-04-26 03:39:00,
2013-04-25 21:44:00,54.0,20.7,29.88,WSW,237,4.0,5.0,27,0.00,CLR,CLR,0.00,WeatherDisplay:10.34,2013-04-26 03:44:00,
2013-04-25 21:49:00,53.4,21.1,29.88,WSW,242,5.0,5.0,28,0.00,CLR,CLR,0.00,WeatherDisplay:10.34,2013-04-26 03:49:00,
2013-04-25 21:54:00,53.1,21.6,29.88,WSW,242,0.0,1.0,29,0.00,CLR,CLR,0.00,WeatherDisplay:10.34,2013-04-26 03:54:00,
2013-04-25 21:59:00,52.6,22.0,29.88,WSW,241,3.0,3.0,30,0.00,CLR,CLR,0.00,WeatherDisplay:10.34,2013-04-26 03:59:00,
2013-04-25 22:01:00,52.4,21.8,29.88,SW,229,3.0,3.0,30,0.00,CLR,CLR,0.00,WeatherDisplay:10.34,2013-04-26 04:01:00,
2013-04-25 22:02:00,52.2,20.9,29.88,SW,229,1.0,2.0,29,0.00,CLR,CLR,0.00,WeatherDisplay:10.34,2013-04-26 04:02:00,
2013-04-25 22:03:00,52.1,20.8,29.88,SW,229,0.0,0.0,29,0.00,CLR,CLR,0.00,WeatherDisplay:10.34,2013-04-26 04:03:00,
2013-04-25 22:04:00,52.0,20.7,29.88,SW,229,0.0,0.0,29,0.00,CLR,CLR,0.00,WeatherDisplay:10.34,2013-04-26 04:04:00,
2013-04-25 22:09:00,51.5,20.2,29.88,SW,229,0.0,0.0,29,0.00,CLR,CLR,0.00,WeatherDisplay:10.34,2013-04-26 04:09:00,
2013-04-25 22:14:00,51.3,21.6,29.89,SW,229,0.0,0.0,31,0.00,CLR,CLR,0.00,WeatherDisplay:10.34,2013-04-26 04:14:00,
2013-04-25 22:19:00,50.8,21.2,29.89,SW,229,0.0,0.0,31,0.00,CLR,CLR,0.00,WeatherDisplay:10.34,2013-04-26 04:19:00,
2013-04-25 22:24:00,50.5,21.7,29.89,SW,229,0.0,0.0,32,0.00,CLR,CLR,0.00,WeatherDisplay:10.34,2013-04-26 04:24:00,
2013-04-25 22:29:00,50.3,23.7,29.89,SW,229,1.0,1.0,35,0.00,CLR,CLR,0.00,WeatherDisplay:10.34,2013-04-26 04:29:00,
2013-04-25 22:34:00,49.9,22.6,29.89,SSW,194,1.0,2.0,34,0.00,CLR,CLR,0.00,WeatherDisplay:10.34,2013-04-26 04:34:00,
2013-04-25 22:39:00,49.6,21.6,29.89,NNW,330,0.0,1.0,33,0.00,CLR,CLR,0.00,WeatherDisplay:10.34,2013-04-26 04:39:00,
2013-04-25 22:44:00,49.3,22.1,29.90,NW,313,2.0,2.0,34,0.00,CLR,CLR,0.00,WeatherDisplay:10.34,2013-04-26 04:44:00,
2013-04-25 22:49:00,49.2,21.3,29.90,NW,313,1.0,1.0,33,0.00,CLR,CLR,0.00,WeatherDisplay:10.34,2013-04-26 04:49:00,
2013-04-25 22:54:00,49.1,21.9,29.90,NW,313,2.0,2.0,34,0.00,CLR,CLR,0.00,WeatherDisplay:10.34,2013-04-26 04:54:00,
2013-04-25 22:59:00,49.1,21.2,29.90,NW,313,0.0,0.0,33,0.00,CLR,CLR,0.00,WeatherDisplay:10.34,2013-04-26 04:59:00,
2013-04-25 23:04:00,49.1,21.2,29.90,NW,313,0.0,0.0,33,0.00,CLR,CLR,0.00,WeatherDisplay:10.34,2013-04-26 05:04:00,
2013-04-25 23:09:00,49.1,21.2,29.90,WSW,250,0.0,3.0,33,0.00,CLR,CLR,0.00,WeatherDisplay:10.34,2013-04-26 05:09:00,
2013-04-25 23:14:00,49.0,21.1,29.91,SW,236,4.0,5.0,33,0.00,CLR,CLR,0.00,WeatherDisplay:10.34,2013-04-26 05:14:00,
2013-04-25 23:19:00,48.6,20.8,29.91,SW,222,4.0,4.0,33,0.00,CLR,CLR,0.00,WeatherDisplay:10.34,2013-04-26 05:19:00,
2013-04-25 23:24:00,48.4,20.6,29.91,SW,222,1.0,2.0,33,0.00,CLR,CLR,0.00,WeatherDisplay:10.34,2013-04-26 05:24:00,
2013-04-25 23:29:00,48.3,21.2,29.91,SW,223,4.0,4.0,34,0.00,CLR,CLR,0.00,WeatherDisplay:10.34,2013-04-26 05:29:00,
2013-04-25 23:34:00,48.2,20.4,29.91,SW,223,2.0,2.0,33,0.00,CLR,CLR,0.00,WeatherDisplay:10.34,2013-04-26 05:34:00,
2013-04-25 23:39:00,48.3,21.2,29.91,West,281,1.0,5.0,34,0.00,CLR,CLR,0.00,WeatherDisplay:10.34,2013-04-26 05:39:00,
2013-04-25 23:44:00,49.1,22.6,29.92,NW,311,6.0,8.0,35,0.00,CLR,CLR,0.00,WeatherDisplay:10.34,2013-04-26 05:44:00,
2013-04-25 23:49:00,50.8,22.7,29.92,NW,315,10.0,10.0,33,0.00,CLR,CLR,0.00,WeatherDisplay:10.34,2013-04-26 05:49:00,
2013-04-25 23:54:00,51.9,22.9,29.92,WNW,298,3.0,3.0,32,0.00,CLR,CLR,0.00,WeatherDisplay:10.34,2013-04-26 05:54:00,
2013-04-25 23:59:00,52.5,22.7,29.92,WNW,291,8.0,8.0,31,0.00,CLR,CLR,0.00,WeatherDisplay:10.34,2013-04-26 05:59:00,